Time;durP1;ratioP1;P1;durP2;ratioP2;P2;SDS_P1;SDS_P2;PMS_P1;PMS_P2;Temp;Humidity;BMP_temperature;BMP_pressure;BME280_temperature;BME280_humidity;BME280_pressure;Samples;Min_cycle;Max_cycle;Signal;HPM_P1;HPM_P2
2021/12/01 00:00:26;;;;;;;4.90;2.33;;;7.40;74.30;;;;;;2342422;54;21056;-72
2021/12/01 00:02:55;;;;;;;5.10;2.30;;;7.50;74.50;;;;;;2341872;54;21057;-71
2021/12/01 00:05:23;;;;;;;6.32;2.50;;;7.50;74.30;;;;;;2324125;54;21013;-72
2021/12/01 00:07:50;;;;;;;3.80;2.20;;;7.50;74.20;;;;;;2556251;53;21064;-72
2021/12/01 00:10:18;;;;;;;5.12;2.40;;;7.50;74.00;;;;;;2342259;54;21016;-71
2021/12/01 00:12:45;;;;;;;3.42;2.17;;;7.50;74.10;;;;;;2332608;54;21420;-72
2021/12/01 00:15:13;;;;;;;4.78;2.22;;;7.50;74.30;;;;;;2532544;54;20980;-72
2021/12/01 00:17:44;;;;;;;4.57;2.20;;;7.60;74.00;;;;;;2319275;54;21451;-72
2021/12/01 00:20:14;;;;;;;4.60;2.20;;;7.60;74.20;;;;;;2317383;54;20996;-73
2021/12/01 00:22:40;;;;;;;4.97;1.90;;;7.60;74.20;;;;;;2302473;54;20968;-73
2021/12/01 00:25:07;;;;;;;6.68;2.30;;;7.60;74.00;;;;;;2544238;54;21071;-72
2021/12/01 00:27:33;;;;;;;4.15;2.28;;;7.60;73.80;;;;;;2313078;54;21066;-72
2021/12/01 00:30:00;;;;;;;5.75;2.10;;;7.60;73.50;;;;;;2311894;54;20962;-72
2021/12/01 00:32:28;;;;;;;5.30;2.10;;;7.60;73.80;;;;;;2325943;54;21068;-73
2021/12/01 00:34:59;;;;;;;5.93;2.20;;;7.60;73.80;;;;;;2332782;53;20967;-72
2021/12/01 00:37:25;;;;;;;4.28;1.90;;;7.60;73.90;;;;;;2574497;53;20960;-73
2021/12/01 00:39:55;;;;;;;4.15;2.17;;;7.70;73.90;;;;;;2559085;53;21742;-72
2021/12/01 00:42:21;;;;;;;5.07;2.05;;;7.70;73.80;;;;;;2560778;53;21014;-72
2021/12/01 00:44:56;;;;;;;5.03;2.00;;;7.70;74.10;;;;;;2583199;53;20968;-73
2021/12/01 00:47:30;;;;;;;4.57;1.80;;;7.70;73.90;;;;;;2323417;54;21591;-73
2021/12/01 00:49:56;;;;;;;6.20;2.80;;;7.70;73.70;;;;;;2339144;54;21421;-72
2021/12/01 00:52:23;;;;;;;5.45;1.90;;;7.80;74.20;;;;;;2586723;53;20933;-73
2021/12/01 00:55:05;;;;;;;3.55;1.67;;;7.80;74.10;;;;;;2343028;54;21039;-73
2021/12/01 00:57:31;;;;;;;3.23;1.60;;;7.80;73.80;;;;;;2587809;53;21025;-72
2021/12/01 00:59:58;;;;;;;3.92;2.10;;;7.80;74.10;;;;;;2320652;54;21217;-72
2021/12/01 01:02:24;;;;;;;3.37;1.58;;;7.80;74.00;;;;;;2324201;54;21107;-72
2021/12/01 01:04:50;;;;;;;3.65;1.37;;;7.80;73.80;;;;;;2331354;54;21609;-72
2021/12/01 01:07:17;;;;;;;3.85;2.15;;;7.90;74.00;;;;;;2562354;53;21052;-72
2021/12/01 01:09:44;;;;;;;4.93;1.80;;;7.90;74.00;;;;;;2321899;54;20999;-73
2021/12/01 01:17:40;;;;;;;4.37;2.10;;;7.90;73.40;;;;;;2326168;54;20942;-72
2021/12/01 01:20:10;;;;;;;3.80;2.00;;;7.90;73.70;;;;;;2335882;54;20909;-73
2021/12/01 01:22:38;;;;;;;5.45;2.35;;;7.90;73.70;;;;;;2555532;53;21022;-73
2021/12/01 01:25:05;;;;;;;4.62;2.50;;;7.90;74.10;;;;;;2337599;54;21061;-73
2021/12/01 01:27:31;;;;;;;4.28;2.45;;;7.90;73.70;;;;;;2320779;54;20924;-73
2021/12/01 01:29:57;;;;;;;4.47;1.90;;;7.90;74.00;;;;;;2341855;54;20960;-74
2021/12/01 01:32:23;;;;;;;4.10;1.95;;;7.90;74.20;;;;;;2319904;54;21004;-73
2021/12/01 01:34:50;;;;;;;3.37;1.80;;;7.90;74.20;;;;;;2587272;53;20941;-73
2021/12/01 01:37:16;;;;;;;4.07;2.00;;;7.90;74.30;;;;;;2329650;54;21491;-73
2021/12/01 01:39:43;;;;;;;4.82;2.03;;;8.00;73.90;;;;;;2315669;54;21801;-73
2021/12/01 01:42:09;;;;;;;4.80;2.05;;;8.00;74.10;;;;;;2542655;53;20987;-72
2021/12/01 01:44:36;;;;;;;3.75;1.87;;;8.00;73.90;;;;;;2534562;53;20948;-73
2021/12/01 01:47:04;;;;;;;3.67;1.75;;;8.00;74.00;;;;;;2586334;53;20973;-73
2021/12/01 01:49:54;;;;;;;7.35;1.80;;;8.10;74.30;;;;;;2342576;54;20941;-74
2021/12/01 01:52:20;;;;;;;8.73;2.20;;;8.10;74.20;;;;;;2555374;53;20984;-73
2021/12/01 01:54:46;;;;;;;4.37;1.87;;;8.10;74.20;;;;;;2318004;55;20941;-73
2021/12/01 01:57:31;;;;;;;4.10;1.95;;;8.10;74.20;;;;;;2579217;53;20957;-74
2021/12/01 01:59:57;;;;;;;4.72;1.98;;;8.10;73.50;;;;;;2331298;54;21017;-73
2021/12/01 02:02:23;;;;;;;2.92;1.48;;;8.20;74.10;;;;;;2326756;54;21006;-73
2021/12/01 02:04:49;;;;;;;4.95;1.42;;;8.20;74.00;;;;;;2313276;54;20949;-74
2021/12/01 02:07:16;;;;;;;4.60;1.95;;;8.20;74.30;;;;;;2334118;54;21512;-74
2021/12/01 02:09:43;;;;;;;4.70;2.12;;;8.20;74.50;;;;;;2299046;54;20969;-74
2021/12/01 02:12:10;;;;;;;4.40;2.00;;;8.30;74.30;;;;;;2560917;53;21001;-73
2021/12/01 02:14:38;;;;;;;3.53;1.80;;;8.30;74.20;;;;;;2321716;54;21038;-74
2021/12/01 02:17:07;;;;;;;5.68;2.12;;;8.30;74.30;;;;;;2321285;54;21595;-73
2021/12/01 02:19:37;;;;;;;4.03;1.80;;;8.40;74.30;;;;;;2337775;54;20946;-74
2021/12/01 02:22:03;;;;;;;4.90;2.28;;;8.40;74.50;;;;;;2565684;53;21025;-74
2021/12/01 02:24:31;;;;;;;5.20;1.98;;;8.40;74.30;;;;;;2324055;54;20994;-74
2021/12/01 02:27:00;;;;;;;3.03;1.73;;;8.40;74.40;;;;;;2581051;53;21732;-74
2021/12/01 02:29:26;;;;;;;5.62;2.30;;;8.40;74.50;;;;;;2326813;54;20922;-73
2021/12/01 02:32:05;;;;;;;3.70;1.92;;;8.50;74.60;;;;;;2539700;53;21461;-74
2021/12/01 02:34:33;;;;;;;3.78;1.70;;;8.50;73.70;;;;;;2588434;53;20944;-74
2021/12/01 02:37:02;;;;;;;4.15;2.00;;;8.50;74.30;;;;;;2551312;53;20974;-74
2021/12/01 02:39:28;;;;;;;4.22;2.08;;;8.50;74.00;;;;;;2332018;54;20937;-74
2021/12/01 02:41:57;;;;;;;4.55;1.87;;;8.60;74.00;;;;;;2318688;54;20977;-74
2021/12/01 02:44:23;;;;;;;4.40;1.87;;;8.60;74.00;;;;;;2305055;55;21301;-74
2021/12/01 02:46:52;;;;;;;3.25;1.70;;;8.60;74.20;;;;;;2548057;54;21583;-74
2021/12/01 02:49:20;;;;;;;4.40;1.75;;;8.70;74.00;;;;;;2549221;54;21035;-73
2021/12/01 02:51:48;;;;;;;5.05;1.87;;;8.60;74.10;;;;;;2312806;54;20932;-73
2021/12/01 02:54:14;;;;;;;3.37;1.73;;;8.70;74.20;;;;;;2315974;54;21029;-73
2021/12/01 02:56:42;;;;;;;2.75;1.50;;;8.70;73.80;;;;;;2342561;54;21559;-72
2021/12/01 02:59:08;;;;;;;2.72;1.23;;;8.80;74.20;;;;;;2571096;52;20955;-74
2021/12/01 03:01:34;;;;;;;4.35;1.30;;;8.80;74.30;;;;;;2557577;53;20940;-74
2021/12/01 03:04:00;;;;;;;3.05;1.50;;;8.80;74.20;;;;;;2586849;53;20957;-74
2021/12/01 03:06:28;;;;;;;3.67;1.42;;;8.80;73.60;;;;;;2555679;53;20981;-74
2021/12/01 03:08:55;;;;;;;3.60;1.20;;;8.80;73.70;;;;;;2587819;53;20990;-74
2021/12/01 03:11:21;;;;;;;3.42;1.60;;;8.80;73.60;;;;;;2588197;53;21040;-73
2021/12/01 03:13:48;;;;;;;3.20;1.02;;;8.90;74.30;;;;;;2342155;54;21028;-73
2021/12/01 03:16:15;;;;;;;3.10;1.52;;;8.90;74.30;;;;;;2317875;54;21110;-73
2021/12/01 03:18:44;;;;;;;2.87;1.42;;;8.90;73.60;;;;;;2588429;53;20973;-74
2021/12/01 03:21:12;;;;;;;3.05;1.42;;;9.00;73.60;;;;;;2341504;54;20996;-74
2021/12/01 03:23:38;;;;;;;3.20;1.23;;;9.00;73.50;;;;;;2588268;53;20941;-73
2021/12/01 03:26:04;;;;;;;2.83;1.02;;;9.00;73.60;;;;;;2332295;54;21022;-72
2021/12/01 03:28:31;;;;;;;4.30;1.50;;;9.00;73.80;;;;;;2322127;54;20941;-73
2021/12/01 03:30:57;;;;;;;3.08;1.45;;;9.00;73.50;;;;;;2319459;54;20950;-74
2021/12/01 03:33:24;;;;;;;3.37;1.37;;;9.00;73.70;;;;;;2586683;53;20973;-73
2021/12/01 03:35:51;;;;;;;2.87;1.23;;;9.10;73.40;;;;;;2588270;53;20957;-73
2021/12/01 03:38:18;;;;;;;2.90;1.27;;;9.10;73.20;;;;;;2341873;54;20936;-73
2021/12/01 03:40:44;;;;;;;3.28;1.20;;;9.10;73.50;;;;;;2588230;53;21025;-73
2021/12/01 03:43:11;;;;;;;3.10;1.20;;;9.10;73.80;;;;;;2341735;54;20944;-74
2021/12/01 03:45:37;;;;;;;3.85;1.10;;;9.10;73.90;;;;;;2318172;54;20938;-74
2021/12/01 03:48:04;;;;;;;2.28;1.08;;;9.10;73.70;;;;;;2342062;54;20969;-73
2021/12/01 03:50:30;;;;;;;3.03;1.20;;;9.10;73.80;;;;;;2318634;54;20949;-74
2021/12/01 03:52:57;;;;;;;2.78;1.23;;;9.10;74.00;;;;;;2565275;53;20998;-74
2021/12/01 03:55:23;;;;;;;3.67;0.95;;;9.20;73.60;;;;;;2572682;53;21085;-72
2021/12/01 03:58:04;;;;;;;3.05;1.08;;;9.20;73.90;;;;;;2341995;54;20973;-74
2021/12/01 04:00:41;;;;;;;3.30;1.10;;;9.20;73.80;;;;;;2579032;53;21043;-74
2021/12/01 04:03:10;;;;;;;2.70;1.00;;;9.30;73.90;;;;;;2334483;54;21907;-74
2021/12/01 04:05:36;;;;;;;5.18;0.93;;;9.30;74.10;;;;;;2342166;54;20973;-74
2021/12/01 04:11:24;;;;;;;3.72;1.20;;;9.30;73.60;;;;;;2339824;54;20969;-76
2021/12/01 04:13:51;;;;;;;2.20;0.90;;;9.30;73.60;;;;;;2318621;54;21398;-73
2021/12/01 04:17:03;;;;;;;3.05;1.00;;;9.40;73.50;;;;;;2335237;54;21819;-74
2021/12/01 04:19:30;;;;;;;2.50;1.20;;;9.40;73.50;;;;;;2329786;54;20934;-74
2021/12/01 04:21:56;;;;;;;2.12;0.80;;;9.40;74.00;;;;;;2331846;54;20928;-74
2021/12/01 04:24:22;;;;;;;3.72;0.80;;;9.40;73.60;;;;;;2319374;54;21002;-73
2021/12/01 04:26:49;;;;;;;2.92;1.10;;;9.40;73.60;;;;;;2552904;53;20945;-74
2021/12/01 04:29:17;;;;;;;2.35;0.95;;;9.40;73.20;;;;;;2342448;54;21072;-74
2021/12/01 04:31:44;;;;;;;3.42;0.90;;;9.50;73.30;;;;;;2587558;53;21001;-73
2021/12/01 04:34:10;;;;;;;3.17;0.95;;;9.50;73.30;;;;;;2342252;54;21004;-74
2021/12/01 04:36:39;;;;;;;4.78;0.93;;;9.50;73.50;;;;;;2548996;54;21037;-73
2021/12/01 04:39:08;;;;;;;2.50;0.60;;;9.50;73.60;;;;;;2336893;54;20992;-73
2021/12/01 04:41:50;;;;;;;2.15;0.75;;;9.60;74.00;;;;;;2328513;54;20943;-74
2021/12/01 04:44:17;;;;;;;2.08;0.88;;;9.60;73.50;;;;;;2318976;54;21436;-73
2021/12/01 04:50:24;;;;;;;3.58;0.70;;;9.60;73.50;;;;;;2575306;53;20984;-73
2021/12/01 04:52:51;;;;;;;1.67;0.60;;;9.70;73.80;;;;;;2561198;53;21081;-74
2021/12/01 04:55:17;;;;;;;0.88;0.40;;;9.70;74.10;;;;;;2326853;54;21060;-74
2021/12/01 04:57:45;;;;;;;1.27;0.57;;;9.70;73.90;;;;;;2573261;53;20996;-73
2021/12/01 05:00:14;;;;;;;2.08;0.75;;;9.70;74.00;;;;;;2587531;53;20956;-72
2021/12/01 05:02:40;;;;;;;1.20;0.50;;;9.70;74.00;;;;;;2314650;54;21050;-72
2021/12/01 05:05:09;;;;;;;1.73;0.60;;;9.70;74.00;;;;;;2311981;54;21130;-73
2021/12/01 05:07:35;;;;;;;2.08;0.80;;;9.80;74.40;;;;;;2297274;54;21026;-72
2021/12/01 05:10:02;;;;;;;1.20;0.50;;;9.80;73.80;;;;;;2551704;54;20995;-73
2021/12/01 05:12:29;;;;;;;4.03;0.88;;;9.80;73.80;;;;;;2311663;53;20983;-73
2021/12/01 05:14:55;;;;;;;1.12;0.47;;;9.80;73.50;;;;;;2314752;53;20952;-73
2021/12/01 05:17:22;;;;;;;1.83;0.65;;;9.90;73.60;;;;;;2555009;54;20951;-73
2021/12/01 05:19:48;;;;;;;3.55;0.60;;;9.80;73.20;;;;;;2301883;54;20963;-71
2021/12/01 05:22:14;;;;;;;1.70;0.68;;;9.90;74.00;;;;;;2555471;53;20899;-73
2021/12/01 05:24:40;;;;;;;5.47;0.90;;;9.90;73.90;;;;;;2555702;53;21003;-73
2021/12/01 05:27:07;;;;;;;1.60;0.50;;;9.90;73.60;;;;;;2333862;54;20956;-73
2021/12/01 05:29:33;;;;;;;3.20;1.15;;;9.90;73.50;;;;;;2557970;53;21078;-73
2021/12/01 05:32:00;;;;;;;3.72;0.98;;;10.00;72.50;;;;;;2328521;54;20925;-72
2021/12/01 05:34:28;;;;;;;2.28;0.70;;;10.00;71.80;;;;;;2318282;54;21065;-73
2021/12/01 05:36:59;;;;;;;1.55;0.65;;;10.00;72.10;;;;;;2548606;53;20955;-73
2021/12/01 05:39:29;;;;;;;2.08;0.50;;;10.00;72.30;;;;;;2302884;53;20943;-72
2021/12/01 05:41:57;;;;;;;1.80;0.90;;;10.00;72.30;;;;;;2315795;54;21018;-72
2021/12/01 05:44:23;;;;;;;1.83;0.57;;;10.00;72.20;;;;;;2543321;54;20951;-72
2021/12/01 05:46:50;;;;;;;2.30;0.70;;;10.10;72.20;;;;;;2548779;53;21044;-73
2021/12/01 05:49:16;;;;;;;1.98;0.93;;;10.00;72.00;;;;;;2313697;54;20939;-73
2021/12/01 05:51:43;;;;;;;3.03;0.55;;;10.00;71.80;;;;;;2315106;54;20935;-73
2021/12/01 05:54:09;;;;;;;1.30;0.52;;;10.00;71.40;;;;;;2317385;54;21004;-72
2021/12/01 05:56:36;;;;;;;1.67;0.50;;;10.00;71.70;;;;;;2310845;54;20951;-72
2021/12/01 05:59:02;;;;;;;2.50;0.50;;;10.00;72.00;;;;;;2553613;54;21015;-73
2021/12/01 06:01:30;;;;;;;1.65;0.50;;;10.00;72.10;;;;;;2315390;54;20922;-73
2021/12/01 06:03:56;;;;;;;1.02;0.50;;;10.00;72.40;;;;;;2312919;54;20927;-71
2021/12/01 06:06:22;;;;;;;1.25;0.50;;;10.10;72.20;;;;;;2313922;54;20971;-73
2021/12/01 06:08:49;;;;;;;1.75;0.55;;;10.10;71.30;;;;;;2550837;53;21004;-72
2021/12/01 06:11:15;;;;;;;1.65;0.40;;;10.10;72.10;;;;;;2317706;53;20947;-72
2021/12/01 06:13:43;;;;;;;2.22;0.45;;;10.10;72.20;;;;;;2313472;54;21010;-72
2021/12/01 06:16:09;;;;;;;1.85;0.80;;;10.20;71.90;;;;;;2312945;54;20939;-72
2021/12/01 06:18:38;;;;;;;1.33;0.47;;;10.20;72.10;;;;;;2554535;53;20943;-73
2021/12/01 06:21:09;;;;;;;1.27;0.40;;;10.20;71.80;;;;;;2314755;54;20967;-72
2021/12/01 06:23:39;;;;;;;1.17;0.45;;;10.20;71.70;;;;;;2536363;53;20966;-73
2021/12/01 06:26:05;;;;;;;0.70;0.30;;;10.30;70.90;;;;;;2288458;55;20998;-71
2021/12/01 06:28:35;;;;;;;1.02;0.37;;;10.30;71.80;;;;;;2315104;54;21007;-72
2021/12/01 06:31:02;;;;;;;1.20;0.50;;;10.30;71.60;;;;;;2320317;54;20989;-73
2021/12/01 06:33:28;;;;;;;1.37;0.40;;;10.40;71.60;;;;;;2530739;54;21767;-73
2021/12/01 06:36:00;;;;;;;1.00;0.40;;;10.40;72.20;;;;;;2304577;54;20955;-72
2021/12/01 06:38:26;;;;;;;0.35;0.30;;;10.40;71.50;;;;;;2295063;54;21634;-72
2021/12/01 06:40:53;;;;;;;1.45;0.60;;;10.50;72.20;;;;;;2554940;53;20967;-72
2021/12/01 06:43:19;;;;;;;1.65;0.50;;;10.50;71.90;;;;;;2297020;54;20996;-72
2021/12/01 06:45:46;;;;;;;1.65;0.40;;;10.50;71.80;;;;;;2554543;54;20964;-74
2021/12/01 06:48:12;;;;;;;1.77;0.50;;;10.60;71.70;;;;;;2555206;54;20975;-74
2021/12/01 06:50:38;;;;;;;1.30;0.40;;;10.60;71.40;;;;;;2309765;54;21022;-72
2021/12/01 06:53:05;;;;;;;1.92;0.50;;;10.60;70.40;;;;;;2539669;54;21011;-75
2021/12/01 06:55:31;;;;;;;1.40;0.50;;;10.60;71.00;;;;;;2319913;54;21113;-73
2021/12/01 06:58:00;;;;;;;0.62;0.30;;;10.60;71.80;;;;;;2314979;54;21049;-74
2021/12/01 07:00:26;;;;;;;2.42;0.50;;;10.60;71.70;;;;;;2550217;54;20967;-74
2021/12/01 07:06:32;;;;;;;1.23;0.45;;;10.70;71.20;;;;;;2545838;53;20968;-70
2021/12/01 07:09:01;;;;;;;1.35;0.40;;;10.70;71.40;;;;;;2306766;55;21070;-73
2021/12/01 07:11:27;;;;;;;1.45;0.50;;;10.70;71.40;;;;;;2532162;53;20950;-74
2021/12/01 07:13:54;;;;;;;1.27;0.50;;;10.70;71.30;;;;;;2529731;54;20955;-73
2021/12/01 07:16:20;;;;;;;2.33;0.70;;;10.70;70.90;;;;;;2311297;56;20966;-74
2021/12/01 07:18:47;;;;;;;1.73;0.35;;;10.70;71.50;;;;;;2315079;55;21067;-71
2021/12/01 07:21:13;;;;;;;0.90;0.30;;;10.80;71.40;;;;;;2555392;54;21904;-73
2021/12/01 07:23:39;;;;;;;1.65;0.52;;;10.80;72.10;;;;;;2315080;55;20979;-73
2021/12/01 07:26:06;;;;;;;1.17;0.40;;;10.80;69.90;;;;;;2315606;55;21070;-73
2021/12/01 07:28:32;;;;;;;2.17;0.60;;;10.80;70.60;;;;;;2318554;55;21000;-71
2021/12/01 07:31:00;;;;;;;0.52;0.30;;;10.80;70.10;;;;;;2582691;53;21014;-72
2021/12/01 07:33:28;;;;;;;2.12;0.50;;;10.90;71.10;;;;;;2297909;54;21048;-75
2021/12/01 07:35:55;;;;;;;1.02;0.60;;;10.90;71.70;;;;;;2294228;54;20970;-74
2021/12/01 07:38:21;;;;;;;0.85;0.40;;;10.90;71.50;;;;;;2505198;54;21228;-72
2021/12/01 07:40:47;;;;;;;1.10;0.32;;;10.90;70.80;;;;;;2315061;54;21632;-74
2021/12/01 07:43:13;;;;;;;1.30;0.30;;;10.90;71.50;;;;;;2314392;54;21491;-73
2021/12/01 07:45:43;;;;;;;0.65;0.30;;;11.00;71.60;;;;;;2313630;55;20947;-74
2021/12/01 07:48:13;;;;;;;0.93;0.40;;;11.00;71.50;;;;;;2292144;55;21035;-71
2021/12/01 07:50:40;;;;;;;1.40;0.40;;;11.00;71.60;;;;;;2311006;53;20936;-72
2021/12/01 07:53:06;;;;;;;1.08;0.30;;;11.10;72.00;;;;;;2313397;54;20941;-71
2021/12/01 07:55:33;;;;;;;0.73;0.30;;;11.10;71.50;;;;;;2554984;54;21717;-71
2021/12/01 07:58:01;;;;;;;1.77;0.45;;;11.20;71.50;;;;;;2314478;53;20936;-73
2021/12/01 08:00:27;;;;;;;1.27;0.47;;;11.20;70.70;;;;;;2318453;54;20955;-73
2021/12/01 08:02:56;;;;;;;2.17;0.50;;;11.20;71.30;;;;;;2293625;55;21554;-73
2021/12/01 08:05:23;;;;;;;2.05;0.35;;;11.30;71.00;;;;;;2315191;54;20940;-73
2021/12/01 08:07:50;;;;;;;1.62;0.40;;;11.30;70.90;;;;;;2555419;54;21788;-72
2021/12/01 08:10:17;;;;;;;0.88;0.30;;;11.30;70.70;;;;;;2551365;53;21855;-73
2021/12/01 08:12:43;;;;;;;0.52;0.30;;;11.30;70.70;;;;;;2315524;54;21090;-73
2021/12/01 08:15:12;;;;;;;0.52;0.30;;;11.30;71.40;;;;;;2310650;54;21021;-74
2021/12/01 08:17:38;;;;;;;1.50;0.40;;;11.50;69.80;;;;;;2313326;54;20955;-72
2021/12/01 08:20:08;;;;;;;2.15;0.50;;;11.40;70.80;;;;;;2550607;53;21013;-72
2021/12/01 08:22:34;;;;;;;1.08;0.40;;;11.50;71.20;;;;;;2312907;54;20946;-72
2021/12/01 08:25:00;;;;;;;1.92;0.45;;;11.50;70.50;;;;;;2554634;54;20951;-75
2021/12/01 08:27:27;;;;;;;0.93;0.40;;;11.50;69.70;;;;;;2314724;54;20912;-72
2021/12/01 08:29:56;;;;;;;2.92;0.77;;;11.50;70.50;;;;;;2314688;54;21050;-76
2021/12/01 08:32:23;;;;;;;1.17;0.40;;;11.50;70.40;;;;;;2554593;54;21017;-74
2021/12/01 08:34:52;;;;;;;1.12;0.50;;;11.50;70.10;;;;;;2297307;54;21007;-73
2021/12/01 08:37:20;;;;;;;0.88;0.40;;;11.60;70.30;;;;;;2544127;53;20998;-73
2021/12/01 08:39:48;;;;;;;1.05;0.30;;;11.60;71.00;;;;;;2299845;54;21074;-73
2021/12/01 08:42:15;;;;;;;1.52;0.55;;;11.60;70.40;;;;;;2555390;53;20960;-75
2021/12/01 08:44:47;;;;;;;1.50;0.60;;;11.70;69.80;;;;;;2314762;54;20965;-73
2021/12/01 08:47:20;;;;;;;1.60;0.62;;;11.70;70.20;;;;;;2320495;55;21025;-72
2021/12/01 08:49:48;;;;;;;1.90;0.62;;;11.70;70.80;;;;;;2526830;54;20913;-73
2021/12/01 08:52:14;;;;;;;0.60;0.35;;;11.70;70.50;;;;;;2314340;54;20924;-74
2021/12/01 08:54:41;;;;;;;0.98;0.50;;;11.70;70.50;;;;;;2315061;53;20992;-73
2021/12/01 08:57:07;;;;;;;1.45;0.50;;;11.70;69.00;;;;;;2554367;53;21054;-75
2021/12/01 08:59:36;;;;;;;2.40;0.45;;;11.70;69.60;;;;;;2294387;54;21032;-72
2021/12/01 09:02:03;;;;;;;0.85;0.43;;;11.80;69.80;;;;;;2526522;54;20980;-73
2021/12/01 09:04:29;;;;;;;0.98;0.40;;;11.70;70.10;;;;;;2312717;54;21011;-74
2021/12/01 09:06:56;;;;;;;1.10;0.40;;;11.80;70.70;;;;;;2538748;54;20930;-73
2021/12/01 09:09:22;;;;;;;1.35;0.80;;;11.80;70.80;;;;;;2552596;53;21035;-74
2021/12/01 09:11:51;;;;;;;1.90;0.80;;;11.80;70.40;;;;;;2315035;54;20965;-72
2021/12/01 09:14:17;;;;;;;2.00;0.90;;;11.80;70.70;;;;;;2305781;55;20972;-73
2021/12/01 09:16:44;;;;;;;1.58;0.50;;;11.90;70.50;;;;;;2537929;54;20981;-73
2021/12/01 09:19:13;;;;;;;1.45;0.60;;;11.90;69.80;;;;;;2301372;54;20972;-74
2021/12/01 09:21:39;;;;;;;1.60;0.60;;;11.90;70.10;;;;;;2544707;54;20959;-73
2021/12/01 09:24:06;;;;;;;1.12;0.47;;;11.90;69.50;;;;;;2314832;53;21328;-73
2021/12/01 09:26:33;;;;;;;3.42;0.98;;;11.90;69.40;;;;;;2295072;54;20946;-74
2021/12/01 09:28:59;;;;;;;2.25;0.80;;;11.90;69.90;;;;;;2330829;54;20920;-74
2021/12/01 09:31:26;;;;;;;1.92;0.80;;;11.90;69.90;;;;;;2550299;53;20943;-73
2021/12/01 09:33:52;;;;;;;2.72;0.60;;;11.90;70.30;;;;;;2337045;55;20955;-73
2021/12/01 09:36:18;;;;;;;1.37;0.60;;;11.90;69.10;;;;;;2338466;55;20924;-71
2021/12/01 09:38:45;;;;;;;1.00;0.40;;;11.90;70.00;;;;;;2555496;53;21830;-74
2021/12/01 09:41:12;;;;;;;1.23;0.60;;;11.90;70.10;;;;;;2542128;53;21052;-73
2021/12/01 09:43:38;;;;;;;0.98;0.40;;;11.90;70.60;;;;;;2298761;54;21027;-74
2021/12/01 09:46:05;;;;;;;1.12;0.50;;;12.00;70.80;;;;;;2561729;53;21449;-74
2021/12/01 09:48:35;;;;;;;1.42;0.50;;;12.00;70.70;;;;;;2582110;53;20982;-72
2021/12/01 09:51:10;;;;;;;1.35;0.60;;;12.00;71.10;;;;;;2579162;53;20975;-72
2021/12/01 09:53:36;;;;;;;1.87;0.50;;;12.10;71.40;;;;;;2292558;54;21078;-73
2021/12/01 09:56:02;;;;;;;1.87;0.50;;;12.00;71.20;;;;;;2328884;54;22022;-74
2021/12/01 09:58:31;;;;;;;2.20;0.50;;;12.10;71.40;;;;;;2317609;54;21310;-73
2021/12/01 10:01:05;;;;;;;2.67;0.62;;;12.10;71.00;;;;;;2326030;54;20979;-74
2021/12/01 10:03:31;;;;;;;1.42;0.60;;;12.10;70.70;;;;;;2318709;54;21004;-71
2021/12/01 10:06:09;;;;;;;1.33;0.30;;;12.20;70.80;;;;;;2581989;53;20990;-72
2021/12/01 10:09:09;;;;;;;1.12;0.50;;;12.20;71.30;;;;;;2333963;54;21071;-74
2021/12/01 10:11:41;;;;;;;1.70;0.60;;;12.20;70.60;;;;;;2310389;54;21053;-72
2021/12/01 10:14:17;;;;;;;2.75;0.50;;;12.30;71.30;;;;;;2316273;54;20993;-73
2021/12/01 10:16:44;;;;;;;2.22;0.52;;;12.30;72.30;;;;;;2329684;54;21852;-72
2021/12/01 10:19:12;;;;;;;1.33;0.47;;;12.30;71.30;;;;;;2558310;53;21073;-72
2021/12/01 10:21:47;;;;;;;1.65;0.60;;;12.30;71.00;;;;;;2577807;53;20907;-73
2021/12/01 10:24:23;;;;;;;1.37;0.50;;;12.40;71.20;;;;;;2333048;54;21017;-73
2021/12/01 10:27:02;;;;;;;2.20;0.70;;;12.40;71.00;;;;;;2313732;54;20999;-74
2021/12/01 10:29:31;;;;;;;1.05;0.43;;;12.40;71.10;;;;;;2304414;55;21522;-74
2021/12/01 10:32:02;;;;;;;1.40;0.50;;;12.50;71.30;;;;;;2320064;54;21002;-73
2021/12/01 10:34:43;;;;;;;1.27;0.50;;;12.50;71.00;;;;;;2582639;53;20963;-71
2021/12/01 10:37:29;;;;;;;1.08;0.50;;;12.50;71.20;;;;;;2321891;54;21011;-72
2021/12/01 10:41:02;;;;;;;1.10;0.40;;;12.50;70.40;;;;;;2580555;53;21019;-73
2021/12/01 10:43:43;;;;;;;1.20;0.50;;;12.60;68.90;;;;;;2337759;54;21862;-74
2021/12/01 10:46:15;;;;;;;1.83;0.60;;;12.60;70.10;;;;;;2542708;54;21794;-74
2021/12/01 10:48:42;;;;;;;2.90;0.75;;;12.60;70.50;;;;;;2329958;54;20916;-74
2021/12/01 10:51:10;;;;;;;1.15;0.60;;;12.70;70.20;;;;;;2328435;55;20948;-74
2021/12/01 10:53:37;;;;;;;1.52;0.73;;;12.80;69.70;;;;;;2521286;54;21768;-73
2021/12/01 10:56:05;;;;;;;1.95;0.73;;;12.80;70.80;;;;;;2306937;54;20906;-73
2021/12/01 10:58:40;;;;;;;1.83;0.50;;;12.70;69.70;;;;;;2312365;55;20902;-71
2021/12/01 11:01:22;;;;;;;1.65;0.50;;;12.80;70.20;;;;;;2310867;55;20912;-73
2021/12/01 11:03:52;;;;;;;1.08;0.45;;;12.80;70.10;;;;;;2296265;54;21033;-74
2021/12/01 11:06:20;;;;;;;1.05;0.50;;;12.80;70.80;;;;;;2305822;54;21324;-74
2021/12/01 11:08:58;;;;;;;4.10;1.92;;;12.90;70.20;;;;;;2303595;54;20959;-72
2021/12/01 11:11:33;;;;;;;2.50;0.80;;;12.90;70.10;;;;;;2310292;54;21016;-73
2021/12/01 11:14:24;;;;;;;4.10;0.80;;;12.90;70.70;;;;;;2542536;54;21000;-74
2021/12/01 11:16:50;;;;;;;1.83;0.70;;;13.00;71.10;;;;;;2550887;53;21075;-73
2021/12/01 11:19:25;;;;;;;1.37;0.60;;;13.00;71.40;;;;;;2566204;53;21392;-74
2021/12/01 11:21:51;;;;;;;1.67;0.60;;;13.10;71.30;;;;;;2302872;55;20969;-73
2021/12/01 11:24:18;;;;;;;2.28;0.90;;;13.10;70.60;;;;;;2302744;54;20917;-72
2021/12/01 11:30:12;;;;;;;1.65;0.70;;;13.20;69.80;;;;;;2552228;54;20952;-73
2021/12/01 11:32:38;;;;;;;1.77;0.80;;;13.20;71.30;;;;;;2552275;53;20964;-73
2021/12/01 11:35:05;;;;;;;1.77;0.88;;;13.20;70.30;;;;;;2303085;54;21070;-74
2021/12/01 11:37:31;;;;;;;1.62;0.80;;;13.30;70.80;;;;;;2517052;54;21012;-73
2021/12/01 11:39:58;;;;;;;1.40;0.70;;;13.30;70.80;;;;;;2538873;53;20965;-74
2021/12/01 11:42:25;;;;;;;1.45;0.60;;;13.30;71.20;;;;;;2307255;54;20918;-73
2021/12/01 11:44:52;;;;;;;1.13;0.50;;;13.30;70.40;;;;;;2525419;53;1482150;-73
2021/12/01 11:47:18;;;;;;;0.70;0.32;;;13.30;69.70;;;;;;2315438;54;20998;-75
2021/12/01 11:49:44;;;;;;;1.50;0.40;;;13.30;70.10;;;;;;2305653;54;20939;-74
2021/12/01 11:52:11;;;;;;;1.08;0.40;;;13.30;69.20;;;;;;2541155;53;21018;-73
2021/12/01 11:54:44;;;;;;;1.25;0.30;;;13.30;68.90;;;;;;2315399;54;20991;-75
2021/12/01 11:57:11;;;;;;;0.77;0.50;;;13.30;68.60;;;;;;2547234;53;21025;-72
2021/12/01 11:59:38;;;;;;;0.70;0.40;;;13.30;69.80;;;;;;2286986;54;21007;-73
2021/12/01 12:02:20;;;;;;;1.65;0.60;;;13.30;69.40;;;;;;2289726;54;21081;-75
2021/12/01 12:04:53;;;;;;;1.95;0.70;;;13.30;68.80;;;;;;2281348;55;21083;-72
2021/12/01 12:07:21;;;;;;;1.95;0.60;;;13.30;68.70;;;;;;2303824;54;21032;-72
2021/12/01 12:16:01;;;;;;;2.10;0.88;;;13.20;69.10;;;;;;2273883;55;20972;-73
2021/12/01 12:19:01;;;;;;;1.05;0.50;;;13.10;69.10;;;;;;2312068;55;21046;-72
2021/12/01 12:24:44;;;;;;;1.02;0.45;;;12.90;69.50;;;;;;2316000;55;20953;-72
2021/12/01 12:28:25;;;;;;;2.17;0.50;;;12.90;69.90;;;;;;2308237;55;21108;-72
2021/12/01 12:30:53;;;;;;;2.03;0.70;;;12.80;69.80;;;;;;2554957;53;20956;-71
2021/12/01 12:33:28;;;;;;;2.58;0.60;;;12.70;70.00;;;;;;2296270;55;21737;-73
2021/12/01 12:35:56;;;;;;;2.00;0.90;;;12.70;70.20;;;;;;2317988;55;21039;-74
2021/12/01 12:38:23;;;;;;;1.50;0.75;;;12.70;70.40;;;;;;2278908;55;20916;-73
2021/12/01 12:41:00;;;;;;;2.92;1.10;;;12.60;70.50;;;;;;2522146;54;21034;-72
2021/12/01 12:43:28;;;;;;;1.58;0.70;;;12.60;70.90;;;;;;2576460;53;20931;-73
2021/12/01 12:46:17;;;;;;;2.87;1.30;;;12.70;71.00;;;;;;2549283;54;21021;-73
2021/12/01 12:48:49;;;;;;;1.80;0.80;;;12.60;70.70;;;;;;2293358;54;20926;-74
2021/12/01 12:51:39;;;;;;;1.50;0.62;;;12.60;71.50;;;;;;2525105;54;20930;-73
2021/12/01 12:54:15;;;;;;;1.25;0.40;;;12.60;71.50;;;;;;2309602;54;21025;-73
2021/12/01 12:57:07;;;;;;;1.10;0.50;;;12.60;71.70;;;;;;2555717;53;20963;-73
2021/12/01 13:06:40;;;;;;;0.95;0.40;;;12.70;71.30;;;;;;2314947;54;20924;-72
2021/12/01 13:09:17;;;;;;;1.65;0.60;;;12.70;71.30;;;;;;2311086;53;21003;-74
2021/12/01 13:11:44;;;;;;;2.55;0.80;;;12.70;71.00;;;;;;2554654;53;20993;-73
2021/12/01 13:14:11;;;;;;;1.77;0.82;;;12.60;71.30;;;;;;2314966;54;20987;-73
2021/12/01 13:16:37;;;;;;;1.65;0.50;;;12.60;71.40;;;;;;2323248;53;21693;-74
2021/12/01 13:19:09;;;;;;;1.58;0.60;;;12.60;71.60;;;;;;2558558;53;21958;-74
2021/12/01 13:22:11;;;;;;;1.35;0.60;;;12.60;71.70;;;;;;2299143;55;21813;-73
2021/12/01 13:24:38;;;;;;;1.37;0.60;;;12.60;71.30;;;;;;2316087;54;21382;-74
2021/12/01 13:27:07;;;;;;;1.48;0.40;;;12.70;71.60;;;;;;2553085;54;21784;-73
2021/12/01 13:29:35;;;;;;;0.73;0.30;;;12.70;72.00;;;;;;2314247;54;20992;-74
2021/12/01 13:32:02;;;;;;;2.03;0.50;;;12.70;72.10;;;;;;2315661;54;21076;-75
2021/12/01 13:34:33;;;;;;;2.10;0.45;;;12.70;71.70;;;;;;2313351;54;21062;-74
2021/12/01 13:37:02;;;;;;;1.17;0.52;;;12.70;72.10;;;;;;2552509;53;20981;-75